AKJ624 VABB-VOGO
Flight info
| Callsign | AKJ624 |
|---|---|
| Flight time | N/A |
| Altitude | 31000 |
| Route | VEVAK2A MABTA W15 UDULO UDULO2A |
| Aircraft | B38M/M-SDE1FGHILORVWXY/HB1 |
Departure
| Time | N/A |
|---|---|
| Airport | Chhatrapati Shivaji Maharaj International Airport (VABB) |
Arrival
| Time | 2026-05-03 20:16 |
|---|---|
| Airport | Goa Dabolim International Airport (VOGO) |
| Time | Latitude | Longitude | Altitude | Speed | Heading |
|---|---|---|---|---|---|
| 2026-05-03 20:15 | 15.39144 | 73.88757 | 1002 ft | 150 kts | 259° |
| 2026-05-03 20:15 | 15.38928 | 73.87639 | 782 ft | 150 kts | 259° |
| 2026-05-03 20:15 | 15.38695 | 73.86437 | 546 ft | 149 kts | 258° |
| 2026-05-03 20:15 | 15.38468 | 73.85270 | 339 ft | 148 kts | 258° |
| 2026-05-03 20:16 | 15.38247 | 73.84139 | 177 ft | 146 kts | 257° |
| 2026-05-03 20:16 | 15.38079 | 73.83293 | 161 ft | 89 kts | 258° |
| 2026-05-03 20:16 | 15.37986 | 73.82825 | 168 ft | 50 kts | 258° |
| 2026-05-03 20:16 | 15.37919 | 73.82499 | 160 ft | 36 kts | 258° |
| 2026-05-03 20:17 | 15.37880 | 73.82292 | 146 ft | 28 kts | 259° |
| 2026-05-03 20:17 | 15.37852 | 73.82160 | 136 ft | 5 kts | 255° |
| 2026-05-03 20:17 | 15.37822 | 73.82134 | 135 ft | 5 kts | 187° |
| 2026-05-03 20:17 | 15.37796 | 73.82136 | 135 ft | 1 kts | 171° |
| 2026-05-03 20:18 | 15.37784 | 73.82137 | 136 ft | 6 kts | 171° |
| 2026-05-03 20:18 | 15.37727 | 73.82147 | 138 ft | 6 kts | 170° |
| 2026-05-03 20:18 | 15.37695 | 73.82161 | 139 ft | 5 kts | 132° |
| 2026-05-03 20:18 | 15.37690 | 73.82204 | 144 ft | 7 kts | 82° |
| 2026-05-03 20:19 | 15.37702 | 73.82269 | 150 ft | 6 kts | 78° |
| 2026-05-03 20:19 | 15.37706 | 73.82288 | 152 ft | 1 kts | 78° |
| 2026-05-03 20:19 | 15.37715 | 73.82336 | 155 ft | 11 kts | 78° |
| 2026-05-03 20:19 | 15.37739 | 73.82454 | 164 ft | 19 kts | 78° |
| 2026-05-03 20:20 | 15.37762 | 73.82578 | 172 ft | 15 kts | 79° |
| 2026-05-03 20:20 | 15.37790 | 73.82720 | 176 ft | 24 kts | 78° |
| 2026-05-03 20:20 | 15.37832 | 73.82931 | 175 ft | 35 kts | 78° |
| 2026-05-03 20:20 | 15.37884 | 73.83203 | 167 ft | 38 kts | 79° |
| 2026-05-03 20:21 | 15.37917 | 73.83373 | 166 ft | 17 kts | 78° |
| 2026-05-03 20:21 | 15.37940 | 73.83489 | 166 ft | 15 kts | 78° |
| 2026-05-03 20:21 | 15.37955 | 73.83564 | 166 ft | 12 kts | 78° |
| 2026-05-03 20:21 | 15.37997 | 73.83654 | 167 ft | 13 kts | 50° |
| 2026-05-03 20:22 | 15.38056 | 73.83725 | 166 ft | 12 kts | 50° |
| 2026-05-03 20:22 | 15.38113 | 73.83790 | 164 ft | 11 kts | 41° |
| 2026-05-03 20:22 | 15.38171 | 73.83821 | 163 ft | 7 kts | 35° |
| 2026-05-03 20:22 | 15.38215 | 73.83840 | 163 ft | 6 kts | 3° |
| 2026-05-03 20:23 | 15.38258 | 73.83834 | 162 ft | 6 kts | 350° |
| 2026-05-03 20:23 | 15.38302 | 73.83826 | 161 ft | 6 kts | 348° |
| 2026-05-03 20:23 | 15.38345 | 73.83815 | 160 ft | 6 kts | 345° |
| 2026-05-03 20:23 | 15.38359 | 73.83807 | 159 ft | 3 kts | 311° |
| 2026-05-03 20:24 | 15.38359 | 73.83774 | 158 ft | 4 kts | 252° |
| 2026-05-03 20:24 | 15.38353 | 73.83743 | 158 ft | 3 kts | 269° |
| 2026-05-03 20:24 | 15.38361 | 73.83728 | 158 ft | 2 kts | 331° |
| 2026-05-03 20:24 | 15.38381 | 73.83721 | 157 ft | 3 kts | 343° |
| 2026-05-03 20:25 | 15.38404 | 73.83715 | 156 ft | 2 kts | 348° |
| 2026-05-03 20:25 | 15.38418 | 73.83713 | 156 ft | 0 kts | 348° |
| 2026-05-03 20:25 | 15.38419 | 73.83712 | 156 ft | 0 kts | 347° |